createdAt,value
2018-04-07T00:00:30.766Z,0.00
2018-04-07T00:01:30.786Z,0.00
2018-04-07T00:02:30.797Z,0.00
2018-04-07T00:03:30.820Z,0.00
2018-04-07T00:04:30.837Z,0.00
2018-04-07T00:05:30.990Z,0.00
2018-04-07T00:06:30.875Z,0.00
2018-04-07T00:07:30.891Z,0.00
2018-04-07T00:08:30.911Z,0.00
2018-04-07T00:09:30.937Z,0.00
2018-04-07T00:10:30.945Z,0.00
2018-04-07T00:11:30.965Z,0.00
2018-04-07T00:12:30.978Z,0.00
2018-04-07T00:13:30.997Z,0.00
2018-04-07T00:14:31.023Z,0.00
2018-04-07T00:15:31.034Z,0.00
2018-04-07T00:16:31.053Z,0.00
2018-04-07T00:17:31.074Z,0.00
2018-04-07T00:18:31.089Z,0.00
2018-04-07T00:19:31.107Z,0.00
2018-04-07T00:20:31.121Z,0.00
2018-04-07T00:21:31.138Z,0.00
2018-04-07T00:22:31.160Z,0.00
2018-04-07T00:23:31.177Z,0.00
2018-04-07T00:24:31.195Z,0.00
2018-04-07T00:25:31.215Z,0.00
2018-04-07T00:26:31.239Z,0.00
2018-04-07T00:27:31.252Z,0.00
2018-04-07T00:28:31.265Z,0.00
2018-04-07T00:29:31.293Z,0.00
2018-04-07T00:30:31.305Z,0.00
2018-04-07T00:31:31.320Z,0.00
2018-04-07T00:32:31.337Z,0.00
2018-04-07T00:33:31.355Z,0.00
2018-04-07T00:34:31.377Z,0.00
2018-04-07T00:35:31.392Z,0.00
2018-04-07T00:36:31.412Z,0.00
2018-04-07T00:37:31.429Z,0.00
2018-04-07T00:38:31.446Z,0.00
2018-04-07T00:39:31.463Z,0.00
2018-04-07T00:40:31.484Z,0.00
2018-04-07T00:41:31.501Z,0.00
2018-04-07T00:42:31.531Z,0.00
2018-04-07T00:43:31.535Z,0.00
2018-04-07T00:44:31.556Z,0.00
2018-04-07T00:45:31.573Z,0.00
2018-04-07T00:46:31.593Z,0.00
2018-04-07T00:47:31.606Z,0.00
2018-04-07T00:48:31.627Z,0.00
2018-04-07T00:49:31.648Z,0.00
2018-04-07T00:50:31.659Z,0.00
2018-04-07T00:51:31.680Z,0.00
2018-04-07T00:52:31.698Z,0.00
2018-04-07T00:53:31.712Z,0.00
2018-04-07T00:54:31.731Z,0.00
2018-04-07T00:55:31.778Z,0.00
2018-04-07T00:56:31.769Z,0.00
2018-04-07T00:57:31.782Z,0.00
2018-04-07T00:58:31.802Z,0.00
2018-04-07T00:59:31.820Z,0.00
2018-04-07T01:00:31.838Z,0.00
2018-04-07T01:01:31.858Z,0.00
2018-04-07T01:02:31.876Z,0.00
2018-04-07T01:03:31.889Z,0.00
2018-04-07T01:04:31.906Z,0.00
2018-04-07T01:05:31.928Z,0.00
2018-04-07T01:06:31.947Z,0.00
2018-04-07T01:07:31.965Z,0.00
2018-04-07T01:08:31.977Z,0.00
2018-04-07T01:09:31.997Z,0.00
2018-04-07T01:10:32.013Z,0.00
2018-04-07T01:11:32.034Z,0.00
2018-04-07T01:12:32.055Z,0.00
2018-04-07T01:13:32.089Z,0.00
2018-04-07T01:14:32.087Z,0.00
2018-04-07T01:15:32.113Z,0.00
2018-04-07T01:16:32.123Z,0.00
2018-04-07T01:17:32.156Z,0.00
2018-04-07T01:18:32.166Z,0.00
2018-04-07T01:19:32.172Z,0.00
2018-04-07T01:20:32.195Z,0.00
2018-04-07T01:21:32.212Z,0.00
2018-04-07T01:22:32.231Z,0.00
2018-04-07T01:23:32.247Z,0.00
2018-04-07T01:24:32.262Z,0.00
2018-04-07T01:25:32.279Z,0.00
2018-04-07T01:26:32.311Z,0.00
2018-04-07T01:27:32.319Z,0.00
2018-04-07T01:28:32.333Z,0.00
2018-04-07T01:29:32.352Z,0.00
2018-04-07T01:30:32.370Z,0.00
2018-04-07T01:31:32.384Z,0.00
2018-04-07T01:32:32.403Z,0.00
2018-04-07T01:33:32.421Z,0.00
2018-04-07T01:34:32.439Z,0.00
2018-04-07T01:35:32.464Z,0.00
2018-04-07T01:36:32.491Z,0.00
2018-04-07T01:37:32.491Z,0.00
2018-04-07T01:38:32.524Z,0.00
2018-04-07T01:39:32.530Z,0.00
2018-04-07T01:40:32.549Z,0.00
2018-04-07T01:41:32.561Z,0.00
2018-04-07T01:42:32.585Z,0.00
2018-04-07T01:43:32.603Z,0.00
2018-04-07T01:44:32.613Z,0.00
2018-04-07T01:45:32.636Z,0.00
2018-04-07T01:46:32.648Z,0.00
2018-04-07T01:47:32.672Z,0.00
2018-04-07T01:48:32.683Z,0.00
2018-04-07T01:49:32.702Z,0.00
2018-04-07T01:50:32.718Z,0.00
2018-04-07T01:51:32.737Z,0.00
2018-04-07T01:52:32.754Z,0.00
2018-04-07T01:53:32.777Z,0.00
2018-04-07T01:54:32.794Z,0.00
2018-04-07T01:55:32.809Z,0.00
2018-04-07T01:56:32.828Z,0.00
2018-04-07T01:57:32.845Z,0.00
2018-04-07T01:58:32.862Z,0.00
2018-04-07T01:59:32.884Z,0.00
2018-04-07T02:00:32.897Z,0.00
2018-04-07T02:01:32.915Z,0.00
2018-04-07T02:02:32.929Z,0.00
2018-04-07T02:03:32.949Z,0.00
2018-04-07T02:04:32.964Z,0.00
2018-04-07T02:05:32.984Z,0.00
2018-04-07T02:06:33.005Z,0.00
2018-04-07T02:07:33.020Z,0.00
2018-04-07T02:08:33.056Z,0.00
2018-04-07T02:09:33.059Z,0.00
2018-04-07T02:10:33.069Z,0.00
2018-04-07T02:11:33.095Z,0.00
2018-04-07T02:12:33.109Z,0.00
2018-04-07T02:13:33.122Z,0.00
2018-04-07T02:14:33.142Z,0.00
2018-04-07T02:15:33.159Z,0.00
2018-04-07T02:16:33.178Z,0.00
2018-04-07T02:17:33.200Z,0.00
2018-04-07T02:18:33.215Z,0.00
2018-04-07T02:19:33.230Z,0.00
2018-04-07T02:20:33.247Z,0.00
2018-04-07T02:21:33.266Z,0.00
2018-04-07T02:22:33.280Z,0.00
2018-04-07T02:23:33.304Z,0.00
2018-04-07T02:24:33.324Z,0.00
2018-04-07T02:25:33.342Z,0.00
2018-04-07T02:26:33.354Z,0.00
2018-04-07T02:27:33.371Z,0.00
2018-04-07T02:28:33.506Z,0.00
2018-04-07T02:29:33.405Z,0.00
2018-04-07T02:30:33.437Z,0.00
2018-04-07T02:31:33.442Z,0.00
2018-04-07T02:32:33.459Z,0.00
2018-04-07T02:33:33.476Z,0.00
2018-04-07T02:34:33.493Z,0.00
2018-04-07T02:35:33.516Z,0.00
2018-04-07T02:36:33.533Z,0.00
2018-04-07T02:37:33.548Z,0.00
2018-04-07T02:38:33.565Z,0.00
2018-04-07T02:39:33.581Z,0.00
2018-04-07T02:40:33.600Z,0.00
2018-04-07T02:41:33.621Z,0.00
2018-04-07T02:42:33.647Z,0.00
2018-04-07T02:43:33.650Z,0.00
2018-04-07T02:44:33.671Z,0.00
2018-04-07T02:45:33.685Z,0.00
2018-04-07T02:46:33.705Z,0.00
2018-04-07T02:47:33.724Z,0.00
2018-04-07T02:48:33.741Z,0.00
2018-04-07T02:49:33.758Z,0.00
2018-04-07T02:50:33.773Z,0.00
2018-04-07T02:51:33.794Z,0.00
2018-04-07T02:52:33.809Z,0.00
2018-04-07T02:53:33.828Z,0.00
2018-04-07T02:54:33.848Z,0.00
2018-04-07T02:55:33.905Z,0.00
2018-04-07T02:56:33.884Z,0.00
2018-04-07T02:57:33.901Z,0.00
2018-04-07T02:58:33.913Z,0.00
2018-04-07T02:59:33.932Z,0.00
2018-04-07T05:00:02.133Z,16.88
2018-04-07T05:01:02.117Z,16.88
2018-04-07T05:02:55.043Z,22.50
2018-04-07T05:03:55.032Z,22.50
2018-04-07T05:05:47.946Z,28.13
2018-04-07T05:06:47.951Z,28.13
2018-04-07T05:08:40.891Z,33.75
2018-04-07T05:09:40.874Z,33.75
2018-04-07T05:11:33.815Z,39.38
2018-04-07T05:12:33.799Z,45.00
2018-04-07T05:14:26.723Z,56.25
2018-04-07T05:15:26.728Z,61.88
2018-04-07T05:17:19.666Z,61.88
2018-04-07T05:18:19.659Z,67.50
2018-04-07T05:20:12.579Z,67.50
2018-04-07T05:21:12.586Z,73.13
2018-04-07T05:23:05.524Z,78.75
2018-04-07T05:24:05.518Z,73.13
2018-04-07T05:25:58.438Z,78.75
2018-04-07T05:26:58.448Z,78.75
2018-04-07T05:28:51.885Z,84.38
2018-04-07T05:29:51.875Z,90.00
2018-04-07T05:31:44.818Z,112.50
2018-04-07T05:32:44.809Z,123.75
2018-04-07T05:34:37.733Z,118.13
2018-04-07T05:35:37.741Z,112.50
2018-04-07T05:37:30.685Z,135.00
2018-04-07T05:38:30.674Z,146.25
2018-04-07T05:40:23.605Z,123.75
2018-04-07T05:41:23.611Z,106.88
2018-04-07T05:43:16.560Z,112.50
2018-04-07T05:44:16.555Z,123.75
2018-04-07T05:46:09.477Z,146.25
2018-04-07T05:47:09.488Z,163.13
2018-04-07T05:49:03.004Z,163.13
2018-04-07T05:50:02.924Z,180.00
2018-04-07T05:51:55.866Z,168.75
2018-04-07T05:52:55.859Z,174.38
2018-04-07T05:54:48.789Z,191.25
2018-04-07T05:55:48.796Z,202.50
2018-04-07T05:57:41.746Z,174.38
2018-04-07T05:58:41.734Z,163.13
2018-04-07T06:00:34.673Z,163.13
2018-04-07T06:01:34.682Z,180.00
2018-04-07T06:03:27.627Z,168.75
2018-04-07T06:04:27.618Z,168.75
2018-04-07T06:06:20.545Z,202.50
2018-04-07T06:07:20.556Z,191.25
2018-04-07T06:09:13.504Z,180.00
2018-04-07T06:10:13.495Z,208.13
2018-04-07T06:12:06.443Z,247.50
2018-04-07T06:13:06.438Z,236.25
2018-04-07T06:14:59.366Z,309.38
2018-04-07T06:15:59.388Z,337.50
2018-04-07T06:17:52.318Z,348.75
2018-04-07T06:18:52.316Z,365.63
2018-04-07T06:20:45.248Z,376.88
2018-04-07T06:21:45.258Z,433.13
2018-04-07T06:23:38.420Z,303.75
2018-04-07T06:24:38.237Z,315.00
2018-04-07T06:26:31.162Z,326.25
2018-04-07T06:27:31.183Z,326.25
2018-04-07T06:29:24.622Z,365.63
2018-04-07T06:30:24.713Z,410.63
2018-04-07T06:32:17.567Z,315.00
2018-04-07T06:33:17.566Z,348.75
2018-04-07T06:35:10.551Z,433.13
2018-04-07T06:36:10.553Z,427.50
2018-04-07T06:38:03.451Z,354.38
2018-04-07T06:39:03.444Z,326.25
2018-04-07T06:40:56.892Z,371.25
2018-04-07T06:41:56.897Z,421.88
2018-04-07T06:43:49.840Z,399.38
2018-04-07T06:44:49.835Z,376.88
2018-04-07T06:46:42.770Z,433.13
2018-04-07T06:47:42.781Z,433.13
2018-04-07T06:49:35.745Z,427.50
2018-04-07T06:50:35.781Z,405.00
2018-04-07T06:52:28.685Z,399.38
2018-04-07T06:53:28.702Z,337.50
2018-04-07T06:55:21.613Z,315.00
2018-04-07T06:56:21.631Z,382.50
2018-04-07T06:58:14.603Z,421.88
2018-04-07T06:59:14.582Z,438.75
2018-04-07T07:01:07.521Z,483.75
2018-04-07T07:02:07.533Z,489.38
2018-04-07T07:04:00.485Z,478.13
2018-04-07T07:05:00.482Z,466.88
2018-04-07T07:06:53.415Z,433.13
2018-04-07T07:07:53.492Z,483.75
2018-04-07T07:09:46.383Z,483.75
2018-04-07T07:10:46.382Z,478.13
2018-04-07T07:12:39.343Z,461.25
2018-04-07T07:13:39.336Z,427.50
2018-04-07T07:15:32.274Z,354.38
2018-04-07T07:16:32.290Z,360.00
2018-04-07T07:18:25.249Z,371.25
2018-04-07T07:19:25.250Z,382.50
2018-04-07T07:21:18.177Z,388.13
2018-04-07T07:22:18.269Z,393.75
2018-04-07T07:24:11.148Z,376.88
2018-04-07T07:25:11.147Z,371.25
2018-04-07T07:27:04.079Z,371.25
2018-04-07T07:28:04.093Z,371.25
2018-04-07T07:29:57.046Z,399.38
2018-04-07T07:30:57.045Z,399.38
2018-04-07T07:32:49.998Z,405.00
2018-04-07T07:33:50.031Z,382.50
2018-04-07T07:35:42.984Z,354.38
2018-04-07T07:36:42.972Z,354.38
2018-04-07T07:37:42.970Z,365.63
2018-04-07T07:38:42.995Z,376.88
2018-04-07T07:39:43.034Z,376.88
2018-04-07T07:40:43.035Z,337.50
2018-04-07T07:41:43.107Z,303.75
2018-04-07T07:42:43.082Z,281.25
2018-04-07T07:43:43.105Z,281.25
2018-04-07T07:44:43.126Z,275.63
2018-04-07T07:45:43.152Z,270.00
2018-04-07T07:46:43.179Z,264.38
2018-04-07T07:47:43.203Z,270.00
2018-04-07T07:48:43.222Z,270.00
2018-04-07T07:49:43.241Z,264.38
2018-04-07T07:50:43.267Z,247.50
2018-04-07T07:51:43.339Z,253.13
2018-04-07T07:52:43.316Z,247.50
2018-04-07T07:53:43.332Z,264.38
2018-04-07T07:54:43.358Z,258.75
2018-04-07T07:55:43.375Z,258.75
2018-04-07T07:56:43.396Z,253.13
2018-04-07T07:57:43.419Z,253.13
2018-04-07T07:58:43.444Z,253.13
2018-04-07T07:59:43.464Z,253.13
2018-04-07T08:00:43.526Z,247.50
2018-04-07T08:01:43.510Z,247.50
2018-04-07T08:02:43.531Z,247.50
2018-04-07T08:03:43.554Z,241.88
2018-04-07T08:04:43.580Z,247.50
2018-04-07T08:05:43.603Z,247.50
2018-04-07T08:06:43.704Z,247.50
2018-04-07T08:07:43.640Z,253.13
2018-04-07T08:08:43.685Z,253.13
2018-04-07T08:09:43.682Z,253.13
2018-04-07T08:10:43.709Z,247.50
2018-04-07T08:11:43.728Z,241.88
2018-04-07T08:12:43.807Z,247.50
2018-04-07T08:13:43.768Z,247.50
2018-04-07T08:14:43.836Z,253.13
2018-04-07T08:15:43.816Z,253.13
2018-04-07T08:16:43.835Z,253.13
2018-04-07T08:17:43.872Z,253.13
2018-04-07T08:18:43.879Z,253.13
2018-04-07T08:19:43.953Z,253.13
2018-04-07T08:20:44.038Z,258.75
2018-04-07T08:21:43.990Z,258.75
2018-04-07T08:22:43.992Z,253.13
2018-04-07T08:23:43.985Z,253.13
2018-04-07T08:24:44.010Z,247.50
2018-04-07T08:25:44.030Z,247.50
2018-04-07T08:26:44.060Z,241.88
2018-04-07T08:27:44.115Z,241.88
2018-04-07T08:28:44.098Z,241.88
2018-04-07T08:29:44.118Z,241.88
2018-04-07T08:30:44.140Z,236.25
2018-04-07T08:31:44.202Z,230.63
2018-04-07T08:32:44.184Z,230.63
2018-04-07T08:33:44.206Z,236.25
2018-04-07T08:34:44.231Z,236.25
2018-04-07T08:35:44.289Z,236.25
2018-04-07T08:36:44.270Z,230.63
2018-04-07T08:37:44.330Z,225.00
2018-04-07T08:38:44.314Z,225.00
2018-04-07T08:39:44.337Z,225.00
2018-04-07T08:40:44.362Z,225.00
2018-04-07T08:41:44.380Z,236.25
2018-04-07T08:42:44.425Z,230.63
2018-04-07T08:43:44.450Z,225.00
2018-04-07T08:44:44.476Z,225.00
2018-04-07T08:45:44.467Z,225.00
2018-04-07T08:46:44.489Z,230.63
2018-04-07T08:47:44.533Z,230.63
2018-04-07T08:48:44.536Z,230.63
2018-04-07T08:49:44.566Z,236.25
2018-04-07T08:50:44.577Z,236.25
2018-04-07T08:51:44.600Z,236.25
2018-04-07T08:52:44.622Z,241.88
2018-04-07T08:53:44.647Z,241.88
2018-04-07T08:54:44.664Z,236.25
2018-04-07T08:55:44.689Z,236.25
2018-04-07T08:56:44.714Z,236.25
2018-04-07T08:57:44.741Z,241.88
2018-04-07T08:58:44.783Z,241.88
2018-04-07T08:59:44.782Z,241.88
2018-04-07T09:00:44.802Z,241.88
2018-04-07T09:01:44.821Z,230.63
2018-04-07T09:02:44.847Z,230.63
2018-04-07T09:03:44.919Z,225.00
2018-04-07T09:04:44.896Z,225.00
2018-04-07T09:05:44.918Z,225.00
2018-04-07T09:06:44.936Z,219.38
2018-04-07T09:07:44.964Z,219.38
2018-04-07T09:08:44.983Z,219.38
2018-04-07T09:09:45.003Z,219.38
2018-04-07T09:10:45.029Z,219.38
2018-04-07T09:11:45.049Z,219.38
2018-04-07T09:12:45.072Z,219.38
2018-04-07T09:13:45.092Z,219.38
2018-04-07T09:14:45.116Z,225.00
2018-04-07T09:15:45.140Z,225.00
2018-04-07T09:16:45.161Z,225.00
2018-04-07T09:17:45.193Z,225.00
2018-04-07T09:18:45.228Z,219.38
2018-04-07T09:19:45.241Z,219.38
2018-04-07T09:20:45.252Z,225.00
2018-04-07T09:21:45.274Z,225.00
2018-04-07T09:22:45.292Z,225.00
2018-04-07T09:23:45.321Z,225.00
2018-04-07T09:24:45.351Z,225.00
2018-04-07T09:25:45.361Z,230.63
2018-04-07T09:26:45.382Z,230.63
2018-04-07T09:27:45.406Z,230.63
2018-04-07T09:28:45.435Z,230.63
2018-04-07T09:29:45.457Z,230.63
2018-04-07T09:30:45.481Z,236.25
2018-04-07T09:31:45.495Z,236.25
2018-04-07T09:32:45.551Z,236.25
2018-04-07T09:33:45.543Z,236.25
2018-04-07T09:34:45.567Z,241.88
2018-04-07T09:35:45.585Z,241.88
2018-04-07T09:36:45.613Z,241.88
2018-04-07T09:37:45.630Z,241.88
2018-04-07T09:38:45.653Z,236.25
2018-04-07T09:39:45.701Z,236.25
2018-04-07T09:40:45.697Z,236.25
2018-04-07T09:41:45.773Z,241.88
2018-04-07T09:42:45.746Z,258.75
2018-04-07T09:43:45.768Z,253.13
2018-04-07T09:44:45.794Z,258.75
2018-04-07T09:45:45.832Z,258.75
2018-04-07T09:46:45.864Z,264.38
2018-04-07T09:47:45.860Z,258.75
2018-04-07T09:48:45.879Z,253.13
2018-04-07T09:49:45.907Z,264.38
2018-04-07T09:50:45.930Z,264.38
2018-04-07T09:51:45.950Z,270.00
2018-04-07T09:52:45.976Z,264.38
2018-04-07T09:53:46.005Z,270.00
2018-04-07T09:54:46.018Z,264.38
2018-04-07T09:55:46.044Z,270.00
2018-04-07T09:56:46.113Z,270.00
2018-04-07T09:57:46.091Z,264.38
2018-04-07T09:58:46.111Z,258.75
2018-04-07T09:59:46.172Z,258.75
2018-04-07T10:00:46.181Z,258.75
2018-04-07T10:01:46.209Z,258.75
2018-04-07T10:02:46.210Z,264.38
2018-04-07T10:03:46.229Z,270.00
2018-04-07T10:04:46.256Z,270.00
2018-04-07T10:05:46.301Z,270.00
2018-04-07T10:06:46.300Z,270.00
2018-04-07T10:07:46.321Z,270.00
2018-04-07T10:08:46.364Z,264.38
2018-04-07T10:09:46.372Z,258.75
2018-04-07T10:10:46.399Z,258.75
2018-04-07T10:11:46.418Z,258.75
2018-04-07T10:12:46.443Z,247.50
2018-04-07T10:13:46.471Z,247.50
2018-04-07T10:14:46.487Z,247.50
2018-04-07T10:15:46.534Z,253.13
2018-04-07T10:16:46.585Z,253.13
2018-04-07T10:17:46.562Z,258.75
2018-04-07T10:18:46.580Z,264.38
2018-04-07T10:19:46.619Z,270.00
2018-04-07T10:20:46.647Z,275.63
2018-04-07T10:21:46.660Z,275.63
2018-04-07T10:22:46.682Z,270.00
2018-04-07T10:23:46.699Z,270.00
2018-04-07T10:24:46.723Z,264.38
2018-04-07T10:25:46.748Z,264.38
2018-04-07T10:26:46.779Z,270.00
2018-04-07T10:27:46.799Z,264.38
2018-04-07T10:28:46.819Z,264.38
2018-04-07T10:29:46.888Z,258.75
2018-04-07T10:30:46.868Z,253.13
2018-04-07T10:31:46.899Z,258.75
2018-04-07T10:32:46.917Z,258.75
2018-04-07T10:33:46.973Z,258.75
2018-04-07T10:34:47.020Z,258.75
2018-04-07T10:35:46.992Z,258.75
2018-04-07T10:36:47.014Z,253.13
2018-04-07T10:37:47.041Z,247.50
2018-04-07T10:38:47.061Z,247.50
2018-04-07T10:39:47.091Z,258.75
2018-04-07T10:40:47.120Z,258.75
2018-04-07T10:41:47.135Z,258.75
2018-04-07T10:42:47.158Z,258.75
2018-04-07T10:43:47.223Z,253.13
2018-04-07T10:44:47.221Z,258.75
2018-04-07T10:45:47.234Z,258.75
2018-04-07T10:46:47.257Z,253.13
2018-04-07T10:47:47.280Z,253.13
2018-04-07T10:48:47.305Z,253.13
2018-04-07T10:49:47.332Z,247.50
2018-04-07T10:50:47.350Z,253.13
2018-04-07T10:51:47.380Z,253.13
2018-04-07T10:52:47.463Z,253.13
2018-04-07T10:53:47.427Z,258.75
2018-04-07T10:54:47.451Z,258.75
2018-04-07T10:55:47.477Z,264.38
2018-04-07T10:56:47.501Z,270.00
2018-04-07T10:57:47.524Z,270.00
2018-04-07T10:58:47.601Z,270.00
2018-04-07T10:59:47.576Z,275.63
2018-04-07T11:00:47.595Z,275.63
2018-04-07T11:01:47.627Z,275.63
2018-04-07T11:02:47.699Z,275.63
2018-04-07T11:03:47.671Z,281.25
2018-04-07T11:04:47.715Z,281.25
2018-04-07T11:05:47.781Z,292.50
2018-04-07T11:06:47.746Z,292.50
2018-04-07T11:07:47.771Z,298.13
2018-04-07T11:08:47.794Z,303.75
2018-04-07T11:09:47.818Z,298.13
2018-04-07T11:10:47.842Z,303.75
2018-04-07T11:11:47.891Z,303.75
2018-04-07T11:12:47.890Z,303.75
2018-04-07T11:13:47.916Z,303.75
2018-04-07T11:14:47.942Z,303.75
2018-04-07T11:15:47.994Z,303.75
2018-04-07T11:16:47.994Z,303.75
2018-04-07T11:17:48.019Z,303.75
2018-04-07T11:18:48.041Z,303.75
2018-04-07T11:19:48.065Z,303.75
2018-04-07T11:20:48.090Z,303.75
2018-04-07T11:21:48.116Z,292.50
2018-04-07T11:22:48.138Z,292.50
2018-04-07T11:23:48.171Z,298.13
2018-04-07T11:24:48.254Z,286.88
2018-04-07T11:25:48.221Z,292.50
2018-04-07T11:26:48.356Z,286.88
2018-04-07T11:27:48.268Z,286.88
2018-04-07T11:28:48.293Z,286.88
2018-04-07T11:29:48.322Z,286.88
2018-04-07T11:30:48.344Z,286.88
2018-04-07T11:31:48.376Z,298.13
2018-04-07T11:32:48.463Z,298.13
2018-04-07T11:33:48.421Z,298.13
2018-04-07T11:34:48.448Z,298.13
2018-04-07T11:35:48.482Z,303.75
2018-04-07T11:36:48.500Z,303.75
2018-04-07T11:37:48.524Z,298.13
2018-04-07T11:38:48.555Z,298.13
2018-04-07T11:39:48.581Z,292.50
2018-04-07T11:40:48.604Z,292.50
2018-04-07T11:41:48.629Z,286.88
2018-04-07T11:42:48.655Z,286.88
2018-04-07T11:43:48.680Z,286.88
2018-04-07T11:44:48.707Z,281.25
2018-04-07T11:45:48.731Z,281.25
2018-04-07T11:46:48.791Z,275.63
2018-04-07T11:47:48.784Z,275.63
2018-04-07T11:48:48.808Z,275.63
2018-04-07T11:49:48.870Z,275.63
2018-04-07T11:50:48.866Z,275.63
2018-04-07T11:51:48.887Z,275.63
2018-04-07T11:52:48.923Z,275.63
2018-04-07T11:53:48.949Z,275.63
2018-04-07T11:54:48.965Z,275.63
2018-04-07T11:55:48.999Z,275.63
2018-04-07T11:56:49.018Z,275.63
2018-04-07T11:57:49.041Z,270.00
2018-04-07T11:58:49.072Z,270.00
2018-04-07T11:59:49.097Z,270.00
2018-04-07T12:00:49.121Z,270.00
2018-04-07T12:01:49.147Z,270.00
2018-04-07T12:02:49.175Z,270.00
2018-04-07T12:03:49.202Z,275.63
2018-04-07T12:04:49.238Z,275.63
2018-04-07T12:05:49.248Z,275.63
2018-04-07T12:06:49.279Z,275.63
2018-04-07T12:07:49.306Z,275.63
2018-04-07T12:08:49.339Z,275.63
2018-04-07T12:09:49.356Z,275.63
2018-04-07T12:10:49.406Z,275.63
2018-04-07T12:11:49.405Z,275.63
2018-04-07T12:12:49.434Z,275.63
2018-04-07T12:13:49.472Z,281.25
2018-04-07T12:14:49.487Z,275.63
2018-04-07T12:15:49.611Z,275.63
2018-04-07T12:16:49.538Z,275.63
2018-04-07T12:17:49.562Z,275.63
2018-04-07T12:18:49.628Z,281.25
2018-04-07T12:19:49.702Z,281.25
2018-04-07T12:20:49.674Z,286.88
2018-04-07T12:21:49.712Z,275.63
2018-04-07T12:22:49.704Z,275.63
2018-04-07T12:23:49.720Z,281.25
2018-04-07T12:24:49.750Z,275.63
2018-04-07T12:25:49.781Z,281.25
2018-04-07T12:26:49.803Z,281.25
2018-04-07T12:27:49.823Z,275.63
2018-04-07T12:28:49.869Z,270.00
2018-04-07T12:29:49.879Z,264.38
2018-04-07T12:30:49.902Z,264.38
2018-04-07T12:31:49.973Z,264.38
2018-04-07T12:32:49.959Z,264.38
2018-04-07T12:33:49.990Z,258.75
2018-04-07T12:34:50.013Z,258.75
2018-04-07T12:35:50.071Z,258.75
2018-04-07T12:36:50.062Z,258.75
2018-04-07T12:37:50.108Z,264.38
2018-04-07T12:38:50.116Z,264.38
2018-04-07T12:39:50.190Z,258.75
2018-04-07T12:40:50.173Z,253.13
2018-04-07T12:41:50.196Z,253.13
2018-04-07T12:42:50.280Z,247.50
2018-04-07T12:43:50.257Z,241.88
2018-04-07T12:44:50.273Z,241.88
2018-04-07T12:45:50.378Z,241.88
2018-04-07T12:46:50.353Z,236.25
2018-04-07T12:47:50.378Z,230.63
2018-04-07T12:48:50.411Z,241.88
2018-04-07T12:49:50.486Z,236.25
2018-04-07T12:50:50.436Z,236.25
2018-04-07T12:51:50.482Z,236.25
2018-04-07T12:52:50.487Z,230.63
2018-04-07T12:53:50.513Z,236.25
2018-04-07T12:54:50.541Z,236.25
2018-04-07T12:55:50.565Z,236.25
2018-04-07T12:56:50.592Z,236.25
2018-04-07T12:57:50.619Z,236.25
2018-04-07T12:58:50.644Z,225.00
2018-04-07T12:59:50.671Z,230.63
2018-04-07T13:00:50.728Z,225.00
2018-04-07T13:01:50.728Z,225.00
2018-04-07T13:02:50.770Z,219.38
2018-04-07T13:03:50.777Z,219.38
2018-04-07T13:04:50.872Z,219.38
2018-04-07T13:05:50.831Z,219.38
2018-04-07T13:06:50.853Z,219.38
2018-04-07T13:07:50.882Z,213.75
2018-04-07T13:08:50.911Z,213.75
2018-04-07T13:09:50.933Z,213.75
2018-04-07T13:10:50.962Z,213.75
2018-04-07T13:11:50.990Z,213.75
2018-04-07T13:12:51.017Z,213.75
2018-04-07T13:13:51.041Z,213.75
2018-04-07T13:14:51.066Z,213.75
2018-04-07T13:15:51.091Z,213.75
2018-04-07T13:16:51.120Z,213.75
2018-04-07T13:17:51.146Z,213.75
2018-04-07T13:18:51.168Z,213.75
2018-04-07T13:19:51.238Z,213.75
2018-04-07T13:20:51.238Z,208.13
2018-04-07T13:21:51.267Z,208.13
2018-04-07T13:22:51.296Z,208.13
2018-04-07T13:23:51.305Z,208.13
2018-04-07T13:24:51.347Z,208.13
2018-04-07T13:25:51.361Z,208.13
2018-04-07T13:26:51.434Z,208.13
2018-04-07T13:27:51.512Z,208.13
2018-04-07T13:28:51.438Z,208.13
2018-04-07T13:29:51.534Z,202.50
2018-04-07T13:30:51.502Z,202.50
2018-04-07T13:31:51.561Z,202.50
2018-04-07T13:32:51.555Z,196.88
2018-04-07T13:33:51.567Z,196.88
2018-04-07T13:34:51.609Z,196.88
2018-04-07T13:35:51.627Z,196.88
2018-04-07T13:36:51.646Z,196.88
2018-04-07T13:37:51.673Z,196.88
2018-04-07T13:38:51.699Z,191.25
2018-04-07T13:39:51.809Z,191.25
2018-04-07T13:40:51.752Z,196.88
2018-04-07T13:41:51.780Z,196.88
2018-04-07T13:42:51.811Z,196.88
2018-04-07T13:43:51.864Z,196.88
2018-04-07T13:44:51.931Z,191.25
2018-04-07T13:45:51.914Z,191.25
2018-04-07T13:46:51.909Z,191.25
2018-04-07T13:47:51.942Z,191.25
2018-04-07T13:48:51.964Z,191.25
2018-04-07T13:49:51.990Z,191.25
2018-04-07T13:50:52.017Z,191.25
2018-04-07T13:51:52.045Z,191.25
2018-04-07T13:52:52.114Z,191.25
2018-04-07T13:53:52.101Z,191.25
2018-04-07T13:54:52.121Z,185.63
2018-04-07T13:55:52.153Z,185.63
2018-04-07T13:56:52.178Z,185.63
2018-04-07T13:57:52.204Z,185.63
2018-04-07T13:58:52.274Z,185.63
2018-04-07T13:59:52.255Z,185.63
2018-04-07T14:00:52.286Z,185.63
2018-04-07T14:01:52.387Z,185.63
2018-04-07T14:02:52.359Z,185.63
2018-04-07T14:03:52.415Z,185.63
2018-04-07T14:04:52.446Z,180.00
2018-04-07T14:05:52.456Z,180.00
2018-04-07T14:06:52.449Z,180.00
2018-04-07T14:07:52.487Z,180.00
2018-04-07T14:08:52.495Z,180.00
2018-04-07T14:09:52.526Z,180.00
2018-04-07T14:10:52.554Z,180.00
2018-04-07T14:11:52.574Z,180.00
2018-04-07T14:12:52.605Z,180.00
2018-04-07T14:13:52.634Z,180.00
2018-04-07T14:14:52.656Z,185.63
2018-04-07T14:15:52.686Z,180.00
2018-04-07T14:16:52.761Z,180.00
2018-04-07T14:17:52.740Z,180.00
2018-04-07T14:18:52.785Z,174.38
2018-04-07T14:19:52.821Z,174.38
2018-04-07T14:20:52.856Z,174.38
2018-04-07T14:21:52.948Z,174.38
2018-04-07T14:22:52.870Z,174.38
2018-04-07T14:23:52.898Z,174.38
2018-04-07T14:24:52.921Z,174.38
2018-04-07T14:25:52.951Z,174.38
2018-04-07T14:26:52.976Z,174.38
2018-04-07T14:27:53.005Z,168.75
2018-04-07T14:28:53.031Z,168.75
2018-04-07T14:29:53.057Z,168.75
2018-04-07T14:30:53.126Z,168.75
2018-04-07T14:31:53.160Z,168.75
2018-04-07T14:32:53.140Z,168.75
2018-04-07T14:33:53.168Z,168.75
2018-04-07T14:34:53.193Z,163.13
2018-04-07T14:35:53.246Z,163.13
2018-04-07T14:36:53.306Z,163.13
2018-04-07T14:37:53.366Z,163.13
2018-04-07T14:38:53.293Z,163.13
2018-04-07T14:39:53.323Z,163.13
2018-04-07T14:40:53.349Z,163.13
2018-04-07T14:41:53.374Z,163.13
2018-04-07T14:42:53.405Z,163.13
2018-04-07T14:43:53.427Z,163.13
2018-04-07T14:44:53.461Z,163.13
2018-04-07T14:45:53.487Z,163.13
2018-04-07T14:46:53.511Z,163.13
2018-04-07T14:47:53.630Z,163.13
2018-04-07T14:48:53.562Z,163.13
2018-04-07T14:49:53.586Z,163.13
2018-04-07T14:50:53.622Z,163.13
2018-04-07T14:51:53.657Z,163.13
2018-04-07T14:52:53.673Z,163.13
2018-04-07T14:53:53.738Z,163.13
2018-04-07T14:54:53.760Z,163.13
2018-04-07T14:55:53.809Z,163.13
2018-04-07T14:56:53.778Z,163.13
2018-04-07T14:57:53.799Z,163.13
2018-04-07T14:58:53.827Z,163.13
2018-04-07T14:59:53.906Z,163.13
2018-04-07T15:00:53.927Z,163.13
2018-04-07T15:01:53.918Z,163.13
2018-04-07T15:02:53.935Z,163.13
2018-04-07T15:03:53.961Z,163.13
2018-04-07T15:04:53.988Z,163.13
2018-04-07T15:05:54.021Z,157.50
2018-04-07T15:06:54.039Z,157.50
2018-04-07T15:07:54.070Z,157.50
2018-04-07T15:08:54.094Z,157.50
2018-04-07T15:09:54.120Z,157.50
2018-04-07T15:10:54.160Z,157.50
2018-04-07T15:11:54.185Z,157.50
2018-04-07T15:12:54.208Z,157.50
2018-04-07T15:13:54.331Z,151.88
2018-04-07T15:14:54.275Z,151.88
2018-04-07T15:15:54.278Z,151.88
2018-04-07T15:16:54.304Z,151.88
2018-04-07T15:17:54.402Z,151.88
2018-04-07T15:18:54.358Z,151.88
2018-04-07T15:19:54.401Z,151.88
2018-04-07T15:20:54.412Z,151.88
2018-04-07T15:21:54.435Z,151.88
2018-04-07T15:22:54.465Z,146.25
2018-04-07T15:23:54.487Z,146.25
2018-04-07T15:24:54.519Z,146.25
2018-04-07T15:25:54.542Z,146.25
2018-04-07T15:26:54.567Z,146.25
2018-04-07T15:27:54.598Z,146.25